Ashland, Ohio
Current Conditions -  °F | °C
As of 2:52 AM on Sunday 26 Oct 2014 (Local Time) from KMFD Reporting Station
Clear Clear  
Wind Chill: 45°   Ceiling: Unl
Heat Index: 49°   Visibility: 10mi
Dew Point: 32°   Wind: 8mph
Humidity: 52%   Direction: 270°W
Pressure: 29.86"   Gusts: NA
Location:  40.87°N, 82.31°W
Report Text: KMFD 260652Z 27007KT 10SM CLR 09/00 A2986 RMK AO2 SLP109 T00940000
Loading
Personal Weather Stations






























Interactive Weather Map
Tropical Storm Tracking
New forecast layout! Learn more

10-Day Weather Forecast

Advertisements
Track Severe Weather on mobile